sensor_id;sensor_type;location;lat;lon;timestamp;pressure;altitude;pressure_sealevel;temperature;humidity
44001;BME280;29660;42.892;24.710;2023-03-14T00:04:54;97218.91;;;0.49;90.14
44001;BME280;29660;42.892;24.710;2023-03-14T00:10:17;97206.66;;;0.43;91.97
44001;BME280;29660;42.892;24.710;2023-03-14T00:15:39;96881.91;;;-1.57;90.76
44001;BME280;29660;42.892;24.710;2023-03-14T00:21:03;97156.47;;;0.14;91.39
44001;BME280;29660;42.892;24.710;2023-03-14T00:26:26;96909.63;;;-1.50;91.52
44001;BME280;29660;42.892;24.710;2023-03-14T00:31:48;96904.06;;;-1.60;92.65
44001;BME280;29660;42.892;24.710;2023-03-14T00:37:10;97130.88;;;-0.09;90.04
44001;BME280;29660;42.892;24.710;2023-03-14T00:42:33;97058.63;;;-0.48;88.88
44001;BME280;29660;42.892;24.710;2023-03-14T00:47:55;96793.41;;;-2.10;88.09
44001;BME280;29660;42.892;24.710;2023-03-14T00:53:19;97101.38;;;-0.04;88.35
44001;BME280;29660;42.892;24.710;2023-03-14T00:58:41;97036.84;;;-0.42;87.92
44001;BME280;29660;42.892;24.710;2023-03-14T01:04:04;97150.75;;;0.24;90.13
44001;BME280;29660;42.892;24.710;2023-03-14T01:09:26;97142.28;;;0.22;88.46
44001;BME280;29660;42.892;24.710;2023-03-14T01:14:49;96812.13;;;-1.82;87.67
44001;BME280;29660;42.892;24.710;2023-03-14T01:20:13;97146.22;;;0.13;90.49
44001;BME280;29660;42.892;24.710;2023-03-14T01:25:41;96805.78;;;-1.92;90.51
44001;BME280;29660;42.892;24.710;2023-03-14T01:31:05;96710.94;;;-2.56;91.56
44001;BME280;29660;42.892;24.710;2023-03-14T01:36:28;97052.13;;;-0.39;92.87
44001;BME280;29660;42.892;24.710;2023-03-14T01:41:55;96957.91;;;-0.95;92.69
44001;BME280;29660;42.892;24.710;2023-03-14T01:47:17;97065.00;;;-0.37;89.81
44001;BME280;29660;42.892;24.710;2023-03-14T01:52:46;96818.84;;;-1.92;89.18
44001;BME280;29660;42.892;24.710;2023-03-14T01:58:10;97089.53;;;-0.32;88.81
44001;BME280;29660;42.892;24.710;2023-03-14T02:03:38;96889.84;;;-1.70;92.59
44001;BME280;29660;42.892;24.710;2023-03-14T02:09:07;96824.38;;;-2.07;91.68
44001;BME280;29660;42.892;24.710;2023-03-14T02:14:35;96603.09;;;-3.52;92.06
44001;BME280;29660;42.892;24.710;2023-03-14T02:26:05;96969.88;;;-1.31;91.85
44001;BME280;29660;42.892;24.710;2023-03-14T02:31:28;96776.78;;;-2.48;91.72
44001;BME280;29660;42.892;24.710;2023-03-14T02:36:50;97106.59;;;-0.47;90.58
44001;BME280;29660;42.892;24.710;2023-03-14T02:42:13;97116.28;;;-0.48;89.83
44001;BME280;29660;42.892;24.710;2023-03-14T02:47:45;97079.13;;;-0.63;89.53
44001;BME280;29660;42.892;24.710;2023-03-14T02:53:13;96845.25;;;-2.07;89.65
44001;BME280;29660;42.892;24.710;2023-03-14T02:58:38;97124.34;;;-0.50;91.36
44001;BME280;29660;42.892;24.710;2023-03-14T03:04:20;97016.81;;;-1.11;90.56
44001;BME280;29660;42.892;24.710;2023-03-14T03:09:42;96767.44;;;-2.68;90.20
44001;BME280;29660;42.892;24.710;2023-03-14T03:15:24;97030.41;;;-0.96;89.17
44001;BME280;29660;42.892;24.710;2023-03-14T03:20:47;96799.44;;;-2.41;88.88
44001;BME280;29660;42.892;24.710;2023-03-14T03:26:10;97020.88;;;-1.15;90.98
44001;BME280;29660;42.892;24.710;2023-03-14T03:31:32;97036.06;;;-0.99;90.48
44001;BME280;29660;42.892;24.710;2023-03-14T03:36:58;97049.25;;;-0.81;89.46
44001;BME280;29660;42.892;24.710;2023-03-14T03:42:23;97023.59;;;-0.97;89.52
44001;BME280;29660;42.892;24.710;2023-03-14T03:47:46;96973.66;;;-1.27;90.51
44001;BME280;29660;42.892;24.710;2023-03-14T03:53:08;96800.84;;;-2.39;90.10
44001;BME280;29660;42.892;24.710;2023-03-14T03:58:31;96751.13;;;-2.64;89.30
44001;BME280;29660;42.892;24.710;2023-03-14T04:03:53;97045.22;;;-0.83;89.92
44001;BME280;29660;42.892;24.710;2023-03-14T04:09:16;97007.53;;;-1.07;90.89
44001;BME280;29660;42.892;24.710;2023-03-14T04:14:54;97019.38;;;-0.98;91.14
44001;BME280;29660;42.892;24.710;2023-03-14T04:20:17;96984.25;;;-1.15;92.06
44001;BME280;29660;42.892;24.710;2023-03-14T04:25:39;96738.31;;;-2.65;90.64
44001;BME280;29660;42.892;24.710;2023-03-14T04:31:14;96997.06;;;-1.07;91.13
44001;BME280;29660;42.892;24.710;2023-03-14T04:36:37;97003.59;;;-1.16;90.67
44001;BME280;29660;42.892;24.710;2023-03-14T04:42:05;96955.44;;;-1.40;89.50
44001;BME280;29660;42.892;24.710;2023-03-14T04:47:30;97035.13;;;-1.05;91.41
44001;BME280;29660;42.892;24.710;2023-03-14T04:52:54;96748.63;;;-2.84;92.70
44001;BME280;29660;42.892;24.710;2023-03-14T04:58:16;96541.19;;;-4.21;93.35
44001;BME280;29660;42.892;24.710;2023-03-14T05:03:39;96956.13;;;-1.52;94.95
44001;BME280;29660;42.892;24.710;2023-03-14T05:09:09;96726.00;;;-2.97;95.10
44001;BME280;29660;42.892;24.710;2023-03-14T05:14:37;97025.97;;;-0.95;95.22
44001;BME280;29660;42.892;24.710;2023-03-14T05:20:01;96886.84;;;-1.67;95.02
44001;BME280;29660;42.892;24.710;2023-03-14T05:25:38;96846.06;;;-1.75;93.96
44001;BME280;29660;42.892;24.710;2023-03-14T05:31:26;96483.16;;;-3.83;91.98
44001;BME280;29660;42.892;24.710;2023-03-14T05:37:15;96994.13;;;-0.42;91.89
44001;BME280;29660;42.892;24.710;2023-03-14T05:43:18;96987.16;;;-0.30;91.68
44001;BME280;29660;42.892;24.710;2023-03-14T05:48:59;97008.34;;;0.05;90.02
44001;BME280;29660;42.892;24.710;2023-03-14T05:54:37;96996.22;;;0.22;89.55
44001;BME280;29660;42.892;24.710;2023-03-14T06:00:17;96984.75;;;0.35;88.60
44001;BME280;29660;42.892;24.710;2023-03-14T06:05:50;96847.31;;;-0.36;87.40
44001;BME280;29660;42.892;24.710;2023-03-14T06:11:15;96678.69;;;-1.13;86.01
44001;BME280;29660;42.892;24.710;2023-03-14T06:16:37;96996.75;;;1.03;86.90
44001;BME280;29660;42.892;24.710;2023-03-14T06:21:59;96719.72;;;-0.47;85.71
44001;BME280;29660;42.892;24.710;2023-03-14T06:27:22;96992.44;;;1.44;85.74
44001;BME280;29660;42.892;24.710;2023-03-14T06:32:48;96978.50;;;1.67;84.60
44001;BME280;29660;42.892;24.710;2023-03-14T06:38:12;96690.88;;;0.18;81.46
44001;BME280;29660;42.892;24.710;2023-03-14T06:43:35;96884.06;;;1.77;77.50
44001;BME280;29660;42.892;24.710;2023-03-14T06:48:59;96769.31;;;1.42;75.86
44001;BME280;29660;42.892;24.710;2023-03-14T06:54:23;96939.88;;;2.82;74.49
44001;BME280;29660;42.892;24.710;2023-03-14T06:59:45;96689.88;;;1.69;73.09
44001;BME280;29660;42.892;24.710;2023-03-14T07:05:07;96937.41;;;3.64;64.82
44001;BME280;29660;42.892;24.710;2023-03-14T07:10:32;96432.25;;;1.08;65.02
44001;BME280;29660;42.892;24.710;2023-03-14T07:15:55;96711.19;;;3.39;61.13
44001;BME280;29660;42.892;24.710;2023-03-14T07:21:18;96405.56;;;1.99;56.25
44001;BME280;29660;42.892;24.710;2023-03-14T07:26:40;96618.25;;;3.86;55.29
44001;BME280;29660;42.892;24.710;2023-03-14T07:32:03;96900.09;;;6.08;53.27
44001;BME280;29660;42.892;24.710;2023-03-14T07:37:25;96786.50;;;5.96;50.59
44001;BME280;29660;42.892;24.710;2023-03-14T07:42:47;96630.31;;;5.40;46.82
44001;BME280;29660;42.892;24.710;2023-03-14T07:48:32;96651.00;;;6.09;46.90
44001;BME280;29660;42.892;24.710;2023-03-14T07:53:55;96772.88;;;7.41;46.35
44001;BME280;29660;42.892;24.710;2023-03-14T07:59:18;96842.22;;;8.38;45.01
44001;BME280;29660;42.892;24.710;2023-03-14T08:04:40;96603.97;;;7.26;43.90
44001;BME280;29660;42.892;24.710;2023-03-14T08:10:03;96660.00;;;7.98;43.78
44001;BME280;29660;42.892;24.710;2023-03-14T08:15:27;96557.91;;;7.80;43.66
44001;BME280;29660;42.892;24.710;2023-03-14T08:20:50;96565.72;;;8.24;41.91
44001;BME280;29660;42.892;24.710;2023-03-14T08:26:12;96547.47;;;8.66;39.94
44001;BME280;29660;42.892;24.710;2023-03-14T08:31:34;96531.63;;;8.98;33.84
44001;BME280;29660;42.892;24.710;2023-03-14T08:36:57;96542.53;;;9.34;33.30
44001;BME280;29660;42.892;24.710;2023-03-14T08:42:19;96688.25;;;10.65;32.74
44001;BME280;29660;42.892;24.710;2023-03-14T08:47:42;96504.94;;;9.88;34.73
44001;BME280;29660;42.892;24.710;2023-03-14T08:53:04;96782.03;;;12.10;35.59
44001;BME280;29660;42.892;24.710;2023-03-14T08:58:27;96547.78;;;11.01;34.29
44001;BME280;29660;42.892;24.710;2023-03-14T09:03:49;96502.88;;;11.03;31.03
44001;BME280;29660;42.892;24.710;2023-03-14T09:09:11;96747.69;;;12.93;31.80
44001;BME280;29660;42.892;24.710;2023-03-14T09:14:35;96504.13;;;11.65;32.44
44001;BME280;29660;42.892;24.710;2023-03-14T09:19:57;96422.94;;;11.43;30.51
44001;BME280;29660;42.892;24.710;2023-03-14T09:25:21;96740.75;;;13.80;31.72
44001;BME280;29660;42.892;24.710;2023-03-14T09:30:43;96490.03;;;12.52;28.85
44001;BME280;29660;42.892;24.710;2023-03-14T09:36:06;96724.66;;;14.32;28.91
44001;BME280;29660;42.892;24.710;2023-03-14T09:41:33;96462.41;;;12.92;25.43
44001;BME280;29660;42.892;24.710;2023-03-14T09:47:03;96469.47;;;13.22;27.65
44001;BME280;29660;42.892;24.710;2023-03-14T09:52:31;96640.50;;;14.63;25.58
44001;BME280;29660;42.892;24.710;2023-03-14T09:57:58;96692.03;;;15.24;27.29
44001;BME280;29660;42.892;24.710;2023-03-14T10:03:26;96408.13;;;13.73;25.70
44001;BME280;29660;42.892;24.710;2023-03-14T10:08:51;96415.97;;;13.78;24.91
44001;BME280;29660;42.892;24.710;2023-03-14T10:14:35;96618.44;;;15.46;24.67
44001;BME280;29660;42.892;24.710;2023-03-14T10:19:59;96350.47;;;13.96;25.84
44001;BME280;29660;42.892;24.710;2023-03-14T10:25:35;96628.03;;;16.10;24.98
44001;BME280;29660;42.892;24.710;2023-03-14T10:30:58;96551.13;;;15.97;23.66
44001;BME280;29660;42.892;24.710;2023-03-14T10:36:26;96574.09;;;16.39;25.60
44001;BME280;29660;42.892;24.710;2023-03-14T10:41:53;96335.56;;;14.91;23.08
44001;BME280;29660;42.892;24.710;2023-03-14T10:47:21;96317.81;;;14.99;24.06
44001;BME280;29660;42.892;24.710;2023-03-14T10:52:47;96504.66;;;16.45;21.52
44001;BME280;29660;42.892;24.710;2023-03-14T10:58:26;96230.63;;;14.84;22.18
44001;BME280;29660;42.892;24.710;2023-03-14T11:03:56;96313.66;;;15.59;21.15
44001;BME280;29660;42.892;24.710;2023-03-14T11:32:45;96457.06;;;17.82;20.38
44001;BME280;29660;42.892;24.710;2023-03-14T11:38:37;96437.91;;;17.87;20.76
44001;BME280;29660;42.892;24.710;2023-03-14T11:44:04;96377.34;;;17.69;20.40
44001;BME280;29660;42.892;24.710;2023-03-14T11:49:42;96160.47;;;16.56;21.96
44001;BME280;29660;42.892;24.710;2023-03-14T11:55:23;96110.56;;;16.30;20.39
44001;BME280;29660;42.892;24.710;2023-03-14T12:00:49;96159.91;;;16.78;21.38
44001;BME280;29660;42.892;24.710;2023-03-14T12:06:19;96122.22;;;16.78;20.56
44001;BME280;29660;42.892;24.710;2023-03-14T12:11:48;96343.41;;;18.35;21.66
44001;BME280;29660;42.892;24.710;2023-03-14T12:17:23;96087.50;;;16.92;22.40
44001;BME280;29660;42.892;24.710;2023-03-14T12:22:49;96234.06;;;18.06;22.20
44001;BME280;29660;42.892;24.710;2023-03-14T12:28:19;96351.25;;;18.75;21.38
44001;BME280;29660;42.892;24.710;2023-03-14T12:33:41;96057.88;;;16.92;20.51
44001;BME280;29660;42.892;24.710;2023-03-14T12:39:33;96277.56;;;18.39;21.77
44001;BME280;29660;42.892;24.710;2023-03-14T12:44:51;96308.19;;;18.67;21.84
44001;BME280;29660;42.892;24.710;2023-03-14T12:50:21;96299.47;;;18.73;20.54
44001;BME280;29660;42.892;24.710;2023-03-14T12:55:50;96271.53;;;18.65;21.34
44001;BME280;29660;42.892;24.710;2023-03-14T13:01:20;96267.44;;;18.72;22.44
44001;BME280;29660;42.892;24.710;2023-03-14T13:06:59;96231.16;;;18.53;22.07
44001;BME280;29660;42.892;24.710;2023-03-14T13:12:26;95962.00;;;16.88;22.08
44001;BME280;29660;42.892;24.710;2023-03-14T13:17:51;96258.97;;;18.73;22.74
44001;BME280;29660;42.892;24.710;2023-03-14T13:23:33;96203.31;;;18.49;22.87
44001;BME280;29660;42.892;24.710;2023-03-14T13:28:55;96038.69;;;17.49;22.11
44001;BME280;29660;42.892;24.710;2023-03-14T13:34:18;96201.66;;;18.64;22.59
44001;BME280;29660;42.892;24.710;2023-03-14T13:39:40;96033.56;;;17.63;23.21
44001;BME280;29660;42.892;24.710;2023-03-14T13:45:03;96223.75;;;18.89;23.08
44001;BME280;29660;42.892;24.710;2023-03-14T13:50:25;95988.75;;;17.35;23.77
44001;BME280;29660;42.892;24.710;2023-03-14T13:55:47;95947.41;;;17.08;23.39
44001;BME280;29660;42.892;24.710;2023-03-14T14:01:16;95985.84;;;17.25;23.34
44001;BME280;29660;42.892;24.710;2023-03-14T14:06:49;96230.88;;;18.78;23.49
44001;BME280;29660;42.892;24.710;2023-03-14T14:12:27;95962.44;;;17.09;23.77
44001;BME280;29660;42.892;24.710;2023-03-14T14:17:54;96206.00;;;18.69;23.67
44001;BME280;29660;42.892;24.710;2023-03-14T14:23:28;96184.00;;;18.47;23.86
44001;BME280;29660;42.892;24.710;2023-03-14T14:29:05;95889.16;;;16.30;24.34
44001;BME280;29660;42.892;24.710;2023-03-14T14:34:27;96021.97;;;17.04;24.80
44001;BME280;29660;42.892;24.710;2023-03-14T14:39:51;96175.47;;;17.87;24.45
44001;BME280;29660;42.892;24.710;2023-03-14T14:45:18;95915.50;;;16.05;25.25
44001;BME280;29660;42.892;24.710;2023-03-14T14:56:20;96156.81;;;17.27;25.36
44001;BME280;29660;42.892;24.710;2023-03-14T15:01:46;95885.69;;;15.34;26.41
44001;BME280;29660;42.892;24.710;2023-03-14T15:07:10;95883.56;;;15.12;26.26
44001;BME280;29660;42.892;24.710;2023-03-14T15:12:32;95907.81;;;15.15;26.62
44001;BME280;29660;42.892;24.710;2023-03-14T15:17:54;96127.44;;;16.27;27.17
44001;BME280;29660;42.892;24.710;2023-03-14T15:23:19;95902.91;;;14.77;27.05
44001;BME280;29660;42.892;24.710;2023-03-14T15:28:42;95874.03;;;14.34;27.45
44001;BME280;29660;42.892;24.710;2023-03-14T15:34:04;95788.66;;;13.71;27.73
44001;BME280;29660;42.892;24.710;2023-03-14T15:39:26;95850.28;;;13.83;28.01
44001;BME280;29660;42.892;24.710;2023-03-14T15:44:48;95848.72;;;13.58;28.22
44001;BME280;29660;42.892;24.710;2023-03-14T15:50:11;95868.38;;;13.49;28.62
44001;BME280;29660;42.892;24.710;2023-03-14T15:55:33;95888.66;;;13.38;28.84
44001;BME280;29660;42.892;24.710;2023-03-14T16:00:55;96070.53;;;14.31;29.00
44001;BME280;29660;42.892;24.710;2023-03-14T16:06:18;96069.56;;;14.14;29.57
44001;BME280;29660;42.892;24.710;2023-03-14T16:11:59;95835.25;;;12.34;29.84
44001;BME280;29660;42.892;24.710;2023-03-14T16:17:21;95836.56;;;12.07;30.23
44001;BME280;29660;42.892;24.710;2023-03-14T16:22:43;95879.13;;;12.12;30.41
44001;BME280;29660;42.892;24.710;2023-03-14T16:28:05;96143.91;;;13.51;30.48
44001;BME280;29660;42.892;24.710;2023-03-14T16:33:33;95778.56;;;11.10;30.83
44001;BME280;29660;42.892;24.710;2023-03-14T16:38:55;95780.19;;;10.93;31.20
44001;BME280;29660;42.892;24.710;2023-03-14T16:44:17;95817.84;;;11.00;31.37
44001;BME280;29660;42.892;24.710;2023-03-14T16:49:40;95757.34;;;10.49;31.40
44001;BME280;29660;42.892;24.710;2023-03-14T16:55:02;95859.41;;;11.01;31.76
44001;BME280;29660;42.892;24.710;2023-03-14T17:00:25;95583.06;;;9.16;31.59
44001;BME280;29660;42.892;24.710;2023-03-14T17:05:50;95843.59;;;10.79;31.43
44001;BME280;29660;42.892;24.710;2023-03-14T17:11:12;96121.94;;;12.39;31.41
44001;BME280;29660;42.892;24.710;2023-03-14T17:16:36;96089.13;;;12.21;31.72
44001;BME280;29660;42.892;24.710;2023-03-14T17:21:58;95787.94;;;10.08;31.70
44001;BME280;29660;42.892;24.710;2023-03-14T17:27:40;95832.91;;;10.18;32.14
44001;BME280;29660;42.892;24.710;2023-03-14T17:33:23;95834.47;;;10.11;32.42
44001;BME280;29660;42.892;24.710;2023-03-14T17:38:45;95695.69;;;9.12;32.41
44001;BME280;29660;42.892;24.710;2023-03-14T17:44:07;95963.91;;;10.77;32.64
44001;BME280;29660;42.892;24.710;2023-03-14T17:49:31;96020.25;;;10.93;33.63
44001;BME280;29660;42.892;24.710;2023-03-14T17:54:53;96040.97;;;10.96;33.47
44001;BME280;29660;42.892;24.710;2023-03-14T18:00:15;96079.59;;;11.07;35.23
44001;BME280;29660;42.892;24.710;2023-03-14T18:05:39;95786.28;;;8.84;37.15
44001;BME280;29660;42.892;24.710;2023-03-14T18:11:02;95982.97;;;9.96;36.58
44001;BME280;29660;42.892;24.710;2023-03-14T18:16:25;95572.16;;;7.22;36.98
44001;BME280;29660;42.892;24.710;2023-03-14T18:21:47;96106.25;;;10.42;36.80
44001;BME280;29660;42.892;24.710;2023-03-14T18:27:09;95567.28;;;7.16;36.65
44001;BME280;29660;42.892;24.710;2023-03-14T18:32:31;95879.66;;;9.05;37.69
44001;BME280;29660;42.892;24.710;2023-03-14T18:37:53;96124.97;;;10.05;39.23
44001;BME280;29660;42.892;24.710;2023-03-14T18:43:15;95795.50;;;7.97;39.90
44001;BME280;29660;42.892;24.710;2023-03-14T18:48:38;96102.97;;;9.69;40.54
44001;BME280;29660;42.892;24.710;2023-03-14T18:54:03;96059.25;;;9.25;41.39
44001;BME280;29660;42.892;24.710;2023-03-14T18:59:31;96086.25;;;9.18;41.93
44001;BME280;29660;42.892;24.710;2023-03-14T19:04:53;95914.56;;;7.90;43.64
44001;BME280;29660;42.892;24.710;2023-03-14T19:10:15;95775.22;;;6.82;43.43
44001;BME280;29660;42.892;24.710;2023-03-14T19:15:38;96007.00;;;8.29;43.55
44001;BME280;29660;42.892;24.710;2023-03-14T19:21:06;95788.56;;;6.77;43.77
44001;BME280;29660;42.892;24.710;2023-03-14T19:26:28;95635.94;;;5.69;44.35
44001;BME280;29660;42.892;24.710;2023-03-14T19:31:52;96041.25;;;8.17;45.04
44001;BME280;29660;42.892;24.710;2023-03-14T19:37:15;95734.59;;;6.07;45.53
44001;BME280;29660;42.892;24.710;2023-03-14T19:42:37;95814.81;;;6.59;46.31
44001;BME280;29660;42.892;24.710;2023-03-14T19:48:01;96038.28;;;7.91;46.94
44001;BME280;29660;42.892;24.710;2023-03-14T19:53:24;95736.03;;;5.81;47.68
44001;BME280;29660;42.892;24.710;2023-03-14T19:58:46;95764.38;;;5.99;47.56
44001;BME280;29660;42.892;24.710;2023-03-14T20:04:09;96042.75;;;7.76;49.01
44001;BME280;29660;42.892;24.710;2023-03-14T20:09:31;96000.13;;;7.40;48.24
44001;BME280;29660;42.892;24.710;2023-03-14T20:14:53;95933.66;;;6.85;49.63
44001;BME280;29660;42.892;24.710;2023-03-14T20:20:17;95988.84;;;7.16;49.13
44001;BME280;29660;42.892;24.710;2023-03-14T20:25:58;96013.75;;;7.33;48.90
44001;BME280;29660;42.892;24.710;2023-03-14T20:31:20;95919.41;;;6.62;49.34
44001;BME280;29660;42.892;24.710;2023-03-14T20:36:42;95917.06;;;6.60;48.96
44001;BME280;29660;42.892;24.710;2023-03-14T20:42:08;95675.97;;;5.06;48.67
44001;BME280;29660;42.892;24.710;2023-03-14T20:47:30;95758.63;;;5.54;48.50
44001;BME280;29660;42.892;24.710;2023-03-14T20:52:54;95748.38;;;5.48;48.73
44001;BME280;29660;42.892;24.710;2023-03-14T20:58:16;96008.63;;;7.04;49.95
44001;BME280;29660;42.892;24.710;2023-03-14T21:03:39;95937.03;;;6.53;49.56
44001;BME280;29660;42.892;24.710;2023-03-14T21:09:02;95909.28;;;6.07;51.67
44001;BME280;29660;42.892;24.710;2023-03-14T21:14:26;96037.63;;;6.77;51.99
44001;BME280;29660;42.892;24.710;2023-03-14T21:19:48;95471.38;;;3.16;52.15
44001;BME280;29660;42.892;24.710;2023-03-14T21:25:10;95941.63;;;6.04;53.49
44001;BME280;29660;42.892;24.710;2023-03-14T21:30:33;95947.13;;;6.08;53.24
44001;BME280;29660;42.892;24.710;2023-03-14T21:35:56;95722.19;;;4.60;52.24
44001;BME280;29660;42.892;24.710;2023-03-14T21:41:18;95870.66;;;5.10;53.83
44001;BME280;29660;42.892;24.710;2023-03-14T21:46:41;95723.91;;;4.46;53.95
44001;BME280;29660;42.892;24.710;2023-03-14T21:52:08;95939.50;;;5.77;54.97
44001;BME280;29660;42.892;24.710;2023-03-14T21:57:30;95982.72;;;5.97;56.47
44001;BME280;29660;42.892;24.710;2023-03-14T22:02:54;95724.03;;;4.31;55.67
44001;BME280;29660;42.892;24.710;2023-03-14T22:08:34;95680.44;;;4.04;56.50
44001;BME280;29660;42.892;24.710;2023-03-14T22:13:56;95676.06;;;3.94;56.53
44001;BME280;29660;42.892;24.710;2023-03-14T22:19:20;95925.63;;;5.43;57.95
44001;BME280;29660;42.892;24.710;2023-03-14T22:24:42;95899.19;;;5.37;57.02
44001;BME280;29660;42.892;24.710;2023-03-14T22:30:05;95755.16;;;4.34;58.57
44001;BME280;29660;42.892;24.710;2023-03-14T22:35:27;95685.91;;;3.84;60.42
44001;BME280;29660;42.892;24.710;2023-03-14T22:40:49;95891.78;;;5.10;61.00
44001;BME280;29660;42.892;24.710;2023-03-14T22:46:11;95630.84;;;3.38;59.17
44001;BME280;29660;42.892;24.710;2023-03-14T22:51:34;95686.44;;;3.81;58.19
44001;BME280;29660;42.892;24.710;2023-03-14T22:56:56;95873.44;;;4.95;60.53
44001;BME280;29660;42.892;24.710;2023-03-14T23:02:18;95636.84;;;3.49;60.19
44001;BME280;29660;42.892;24.710;2023-03-14T23:07:40;95623.25;;;3.36;61.06
44001;BME280;29660;42.892;24.710;2023-03-14T23:13:03;95626.16;;;3.35;61.05
44001;BME280;29660;42.892;24.710;2023-03-14T23:18:27;95665.50;;;3.60;62.67
44001;BME280;29660;42.892;24.710;2023-03-14T23:23:50;95918.94;;;5.21;62.04
44001;BME280;29660;42.892;24.710;2023-03-14T23:29:12;95658.38;;;3.66;63.22
44001;BME280;29660;42.892;24.710;2023-03-14T23:34:34;95570.50;;;3.07;64.30
44001;BME280;29660;42.892;24.710;2023-03-14T23:39:58;95599.31;;;3.28;64.13
44001;BME280;29660;42.892;24.710;2023-03-14T23:45:20;95858.66;;;4.94;64.28
44001;BME280;29660;42.892;24.710;2023-03-14T23:50:42;95418.97;;;2.07;65.39
44001;BME280;29660;42.892;24.710;2023-03-14T23:56:04;95675.19;;;3.70;65.70
